KEGE/EGE METAR and TAF weather

Enter ICAO airport designator
Station Type Date Time Source
KEGE METAR 2020/12/06 01:56 UTC NOAA

KEGE 060156Z AUTO 15004KT 10SM CLR M04/M09 A3044 RMK AO2 SLP391 T10391094 FZRANO PNO $


Station Type Date Time Source
KEGE Decoded METAR 2020/12/06 01:56 UTC NOAA

Eagle County Regional, CO, United States (KEGE) 39-39N 106-55W
Dec 05, 2020 - 08:56 PM EST / 2020.12.06 0156 UTC
Wind: from the SSE (150 degrees) at 5 MPH (4 KT):0
Visibility: 10 mile(s):0
Sky conditions: clear
Temperature: 25.0 F (-3.9 C)
Windchill: 19 F (-7 C):1
Dew Point: 15.1 F (-9.4 C)
Relative Humidity: 65%
Pressure (altimeter): 30.44 in. Hg (1030 hPa)
ob: KEGE 060156Z AUTO 15004KT 10SM CLR M04/M09 A3044 RMK AO2 SLP391 T10391094 FZRANO PNO
cycle: 2

Station Type Date Time Source
KEGE TAF 2020/12/05 18:22 UTC NOAA

TAF KEGE 051720Z 0518/0618 VRB05KT P6SM SKC

Example: see airport list